首页
METAR-TAF:

METAR-TAF

机场 :

卡利斯佩尔, 蒙大拿州, 美国

纬度: 48-18-15N, 经度: 114-15-49W, 海拔: 906米

当前天气观测

该预报发布于1小时和18分钟前的15:55 UTC
风速9节,风向西南,有时为14节阵风
温度 21°C
湿度 33%
气压 1014 hPa
能見度: 16.1公里
天空无云

METAR: KGPI 241555Z AUTO 22009G14KT 10SM CLR 21/04 A2993 RMK AO2 SLP117 T02110044 $

时间: 11:13 (17:13 UTC)

预报

该预报发布于5小时和53分钟前的11:20 UTC
预报有效从24日的 12点(UTC)到 25日的 12点(UTC)
风速6节,风向
能見度: 10公里
天空无云
从 24日的 1800点(UTC)
风速12节,风向西南,有时为18节阵风
能見度: 10公里
少量云层高于25000英尺
从 24日的 2100点(UTC)
风速12节,风向西转西南,有时为20节阵风
能見度: 10公里
天空无云
从 25日的 0300点(UTC)
风速3节,风向西转西南
能見度: 10公里
天空无云

TAF: KGPI 241120Z 2412/2512 19006KT P6SM SKC FM241800 22012G18KT P6SM FEW250 FM242100 25012G20KT P6SM SKC FM250300 25003KT P6SM SKC

超过4000个机场的气象观测和天气预报(METAR&TAF报告)。

可查询的气象台以黄色和红色小点在地图上表示。

将鼠标移到小点上方,可查看气象台名称。

然后点击查看天气观测和预报。

如需切换地图:点击带黑十字的绿色按钮放大地图;点击带横线的绿色按钮缩小地图;或者点击绿色箭头查看邻近地区的地图。


METAR-TAF: